Toulon, Nevada
Current Conditions -  °F | °C
As of 5:53 AM on Thursday 30 Oct 2014 (Local Time) from KLOL Reporting Station
Clear Clear  
Wind Chill: 30°   Ceiling: Unl
Heat Index: 30°   Visibility: 10mi
Dew Point: 15°   Wind: 0mph
Humidity: 54%   Direction: NA
Pressure: 30.13"   Gusts: NA
Location:  40.3545°N, 118.628°W
Report Text: KLOL 301253Z AUTO 00000KT 10SM CLR M01/M09 A3013 RMK AO2 SLP201 T10111094
Loading
Personal Weather Stations






























Interactive Weather Map
Tropical Storm Tracking
New forecast layout! Learn more

10-Day Weather Forecast

Advertisements
Track Severe Weather on mobile